createdAt,value
2018-02-20T00:02:05.974Z,-3.03
2018-02-20T00:04:34.239Z,-3.00
2018-02-20T00:07:02.519Z,-2.94
2018-02-20T00:09:30.814Z,-2.95
2018-02-20T00:12:00.218Z,-2.95
2018-02-20T00:14:28.512Z,-2.93
2018-02-20T00:16:56.818Z,-2.94
2018-02-20T00:19:25.903Z,-3.01
2018-02-20T00:21:54.167Z,-3.02
2018-02-20T00:24:22.435Z,-3.01
2018-02-20T00:26:50.711Z,-3.13
2018-02-20T00:29:18.971Z,-3.26
2018-02-20T00:31:47.246Z,-3.15
2018-02-20T00:34:15.510Z,-3.18
2018-02-20T00:36:43.783Z,-3.30
2018-02-20T00:39:12.047Z,-3.35
2018-02-20T00:41:40.312Z,-3.34
2018-02-20T00:44:08.632Z,-3.47
2018-02-20T00:46:36.891Z,-3.29
2018-02-20T00:49:05.173Z,-3.07
2018-02-20T00:51:33.441Z,-3.00
2018-02-20T00:54:01.728Z,-2.95
2018-02-20T00:56:29.989Z,-3.04
2018-02-20T00:58:58.264Z,-2.82
2018-02-20T01:01:26.522Z,-2.76
2018-02-20T01:03:54.812Z,-2.90
2018-02-20T01:06:23.075Z,-2.78
2018-02-20T01:08:51.355Z,-2.78
2018-02-20T01:11:19.635Z,-2.80
2018-02-20T01:13:47.888Z,-2.66
2018-02-20T01:16:18.447Z,-2.67
2018-02-20T01:18:46.690Z,-2.80
2018-02-20T01:21:14.978Z,-2.83
2018-02-20T01:23:43.244Z,-2.78
2018-02-20T01:26:12.310Z,-2.62
2018-02-20T01:28:40.583Z,-2.64
2018-02-20T01:31:08.899Z,-2.62
2018-02-20T01:33:37.949Z,-2.75
2018-02-20T01:36:06.216Z,-2.81
2018-02-20T01:38:34.488Z,-2.59
2018-02-20T01:41:02.759Z,-2.61
2018-02-20T01:43:31.035Z,-2.63
2018-02-20T01:45:59.303Z,-2.71
2018-02-20T01:48:27.571Z,-2.64
2018-02-20T01:51:08.546Z,-2.50
2018-02-20T01:53:36.848Z,-2.66
2018-02-20T01:56:05.115Z,-2.65
2018-02-20T01:58:33.420Z,-2.90
2018-02-20T02:01:01.673Z,-2.83
2018-02-20T02:03:29.942Z,-2.88
2018-02-20T02:05:58.205Z,-2.76
2018-02-20T02:08:26.476Z,-2.80
2018-02-20T02:10:54.740Z,-2.65
2018-02-20T02:13:22.999Z,-2.51
2018-02-20T02:15:52.039Z,-2.58
2018-02-20T02:18:21.116Z,-2.57
2018-02-20T02:20:49.382Z,-2.78
2018-02-20T02:23:17.658Z,-2.81
2018-02-20T02:25:45.911Z,-2.97
2018-02-20T02:28:14.946Z,-2.93
2018-02-20T02:30:43.220Z,-2.92
2018-02-20T02:33:11.484Z,-2.95
2018-02-20T02:35:39.771Z,-3.11
2018-02-20T02:38:08.033Z,-3.30
2018-02-20T02:40:36.310Z,-3.08
2018-02-20T02:43:04.565Z,-3.05
2018-02-20T02:45:33.630Z,-2.98
2018-02-20T02:48:01.890Z,-2.96
2018-02-20T02:50:30.164Z,-2.98
2018-02-20T02:52:58.430Z,-3.05
2018-02-20T02:55:26.694Z,-3.13
2018-02-20T02:57:54.975Z,-3.02
2018-02-20T03:00:23.235Z,-3.17
2018-02-20T03:02:51.507Z,-3.22
2018-02-20T03:05:19.775Z,-3.33
2018-02-20T03:07:48.082Z,-3.26
2018-02-20T03:10:16.350Z,-3.19
2018-02-20T03:12:44.606Z,-3.13
2018-02-20T03:15:12.880Z,-3.02
2018-02-20T03:17:41.145Z,-3.01
2018-02-20T03:20:10.214Z,-3.06
2018-02-20T03:22:38.499Z,-2.97
2018-02-20T03:25:07.524Z,-2.97
2018-02-20T03:27:35.834Z,-3.05
2018-02-20T03:30:04.100Z,-3.14
2018-02-20T03:32:32.379Z,-3.01
2018-02-20T03:35:00.671Z,-2.80
2018-02-20T03:37:28.951Z,-2.74
2018-02-20T03:39:57.236Z,-2.57
2018-02-20T03:42:25.498Z,-2.58
2018-02-20T03:44:53.771Z,-2.43
2018-02-20T03:47:22.026Z,-2.42
2018-02-20T03:49:50.299Z,-2.34
2018-02-20T03:52:18.559Z,-2.41
2018-02-20T03:54:46.812Z,-2.49
2018-02-20T03:57:15.874Z,-2.35
2018-02-20T03:59:44.141Z,-2.49
2018-02-20T04:02:12.407Z,-3.01
2018-02-20T04:04:40.685Z,-2.80
2018-02-20T04:07:08.944Z,-2.61
2018-02-20T04:09:37.211Z,-2.59
2018-02-20T04:12:06.320Z,-2.37
2018-02-20T04:14:34.583Z,-2.45
2018-02-20T04:17:02.842Z,-2.35
2018-02-20T04:19:31.871Z,-2.52
2018-02-20T04:22:00.230Z,-2.70
2018-02-20T04:24:28.494Z,-2.52
2018-02-20T04:26:56.763Z,-2.42
2018-02-20T04:29:25.790Z,-2.36
2018-02-20T04:31:54.052Z,-2.19
2018-02-20T04:34:22.344Z,-2.26
2018-02-20T04:36:50.579Z,-2.50
2018-02-20T04:39:19.627Z,-2.52
2018-02-20T04:41:47.883Z,-2.49
2018-02-20T04:44:16.281Z,-2.44
2018-02-20T04:46:44.538Z,-2.58
2018-02-20T04:49:12.793Z,-2.47
2018-02-20T04:51:41.067Z,-2.24
2018-02-20T04:54:09.326Z,-2.10
2018-02-20T04:56:38.376Z,-2.06
2018-02-20T04:59:06.626Z,-2.12
2018-02-20T05:01:34.899Z,-2.07
2018-02-20T05:04:03.162Z,-2.10
2018-02-20T05:06:31.440Z,-2.02
2018-02-20T05:08:59.735Z,-1.95
2018-02-20T05:11:28.014Z,-2.08
2018-02-20T05:13:56.279Z,-2.12
2018-02-20T05:16:24.535Z,-2.20
2018-02-20T05:18:53.567Z,-2.43
2018-02-20T05:21:21.844Z,-2.47
2018-02-20T05:23:50.100Z,-2.31
2018-02-20T05:26:18.371Z,-2.17
2018-02-20T05:28:46.631Z,-2.12
2018-02-20T05:31:15.673Z,-1.91
2018-02-20T05:33:43.930Z,-2.03
2018-02-20T05:36:12.203Z,-2.12
2018-02-20T05:38:40.470Z,-2.19
2018-02-20T05:41:08.730Z,-2.21
2018-02-20T05:43:37.783Z,-2.13
2018-02-20T05:46:06.059Z,-2.15
2018-02-20T05:48:34.343Z,-2.19
2018-02-20T05:51:02.613Z,-2.40
2018-02-20T05:53:30.860Z,-2.31
2018-02-20T05:55:59.156Z,-2.22
2018-02-20T05:58:27.426Z,-2.31
2018-02-20T06:00:56.513Z,-2.15
2018-02-20T06:03:24.763Z,-2.13
2018-02-20T06:05:53.027Z,-2.23
2018-02-20T06:08:21.295Z,-2.26
2018-02-20T06:10:50.326Z,-2.12
2018-02-20T06:13:18.610Z,-1.89
2018-02-20T06:15:46.876Z,-1.73
2018-02-20T06:18:15.135Z,-1.71
2018-02-20T06:20:43.412Z,-1.62
2018-02-20T06:23:11.669Z,-1.71
2018-02-20T06:25:40.708Z,-1.67
2018-02-20T06:28:08.969Z,-1.71
2018-02-20T06:30:37.269Z,-1.62
2018-02-20T06:33:05.547Z,-1.53
2018-02-20T06:35:33.948Z,-1.46
2018-02-20T06:38:02.236Z,-1.62
2018-02-20T06:40:31.359Z,-1.69
2018-02-20T06:42:59.620Z,-1.66
2018-02-20T06:45:28.654Z,-1.61
2018-02-20T06:47:56.915Z,-2.19
2018-02-20T06:50:25.253Z,-2.32
2018-02-20T06:52:54.291Z,-2.27
2018-02-20T06:55:22.570Z,-2.35
2018-02-20T06:57:50.853Z,-2.40
2018-02-20T07:00:19.147Z,-2.35
2018-02-20T07:02:47.460Z,-2.32
2018-02-20T07:05:15.689Z,-2.21
2018-02-20T07:07:43.947Z,-2.09
2018-02-20T07:10:12.239Z,-2.07
2018-02-20T07:12:40.498Z,-1.97
2018-02-20T07:15:08.773Z,-1.92
2018-02-20T07:17:37.033Z,-1.80
2018-02-20T07:20:05.319Z,-2.01
2018-02-20T07:22:33.582Z,-2.02
2018-02-20T07:25:01.870Z,-2.17
2018-02-20T07:27:30.136Z,-2.13
2018-02-20T07:29:58.402Z,-1.94
2018-02-20T07:32:26.686Z,-1.76
2018-02-20T07:34:54.952Z,-1.64
2018-02-20T07:37:23.231Z,-1.47
2018-02-20T07:39:51.498Z,-1.41
2018-02-20T07:42:20.535Z,-1.42
2018-02-20T07:44:48.820Z,-1.36
2018-02-20T07:47:17.875Z,-1.29
2018-02-20T07:49:46.131Z,-1.33
2018-02-20T07:52:15.258Z,-1.26
2018-02-20T07:54:43.543Z,-1.31
2018-02-20T07:57:11.819Z,-1.22
2018-02-20T07:59:40.091Z,-1.22
2018-02-20T08:02:08.370Z,-1.17
2018-02-20T08:04:36.630Z,-1.10
2018-02-20T08:07:04.961Z,-1.20
2018-02-20T08:09:33.227Z,-1.20
2018-02-20T08:12:01.504Z,-1.28
2018-02-20T08:14:29.794Z,-1.33
2018-02-20T08:16:58.064Z,-1.42
2018-02-20T08:19:26.335Z,-1.45
2018-02-20T08:21:54.628Z,-1.50
2018-02-20T08:24:22.918Z,-1.59
2018-02-20T08:26:51.947Z,-1.61
2018-02-20T08:29:20.206Z,-1.83
2018-02-20T08:31:48.489Z,-1.73
2018-02-20T08:34:16.746Z,-1.72
2018-02-20T08:36:45.105Z,-1.76
2018-02-20T08:39:13.394Z,-1.81
2018-02-20T08:41:42.479Z,-1.73
2018-02-20T08:44:11.509Z,-1.64
2018-02-20T08:46:39.774Z,-1.52
2018-02-20T08:49:08.054Z,-1.53
2018-02-20T08:51:36.315Z,-1.39
2018-02-20T08:54:05.368Z,-1.15
2018-02-20T08:56:33.654Z,-0.86
2018-02-20T08:59:01.911Z,-0.57
2018-02-20T09:01:30.187Z,-0.33
2018-02-20T09:03:58.453Z,-0.24
2018-02-20T09:06:26.729Z,-0.25
2018-02-20T09:08:54.998Z,-0.02
2018-02-20T09:11:23.254Z,0.16
2018-02-20T09:13:52.279Z,0.40
2018-02-20T09:16:21.426Z,0.66
2018-02-20T09:18:50.459Z,0.90
2018-02-20T09:21:18.725Z,1.07
2018-02-20T09:23:46.987Z,1.14
2018-02-20T09:26:15.250Z,1.39
2018-02-20T09:28:44.281Z,1.35
2018-02-20T09:31:12.527Z,1.51
2018-02-20T09:33:40.808Z,1.79
2018-02-20T09:36:09.083Z,2.15
2018-02-20T09:38:37.335Z,2.44
2018-02-20T09:41:06.362Z,2.77
2018-02-20T09:43:34.665Z,2.97
2018-02-20T09:46:02.874Z,3.04
2018-02-20T09:48:31.920Z,3.09
2018-02-20T09:51:00.182Z,3.22
2018-02-20T09:53:28.435Z,3.32
2018-02-20T09:55:57.447Z,3.51
2018-02-20T09:58:25.717Z,3.45
2018-02-20T10:00:53.983Z,3.16
2018-02-20T10:03:22.259Z,3.16
2018-02-20T10:05:50.536Z,3.03
2018-02-20T10:08:19.640Z,2.86
2018-02-20T10:10:47.907Z,3.26
2018-02-20T10:13:16.943Z,3.51
2018-02-20T10:15:45.240Z,3.23
2018-02-20T10:18:13.500Z,3.70
2018-02-20T10:20:41.765Z,3.94
2018-02-20T10:23:10.019Z,4.04
2018-02-20T10:25:38.290Z,4.29
2018-02-20T10:28:06.538Z,3.69
2018-02-20T10:30:35.587Z,3.96
2018-02-20T10:33:03.852Z,4.06
2018-02-20T10:35:32.110Z,4.13
2018-02-20T10:38:00.433Z,4.26
2018-02-20T10:40:28.691Z,3.82
2018-02-20T10:42:56.948Z,4.27
2018-02-20T10:45:25.235Z,4.59
2018-02-20T10:47:53.491Z,5.01
2018-02-20T10:50:21.761Z,5.36
2018-02-20T10:52:50.015Z,5.25
2018-02-20T10:55:19.046Z,5.38
2018-02-20T10:57:47.340Z,5.56
2018-02-20T11:00:15.588Z,5.65
2018-02-20T11:02:43.858Z,5.78
2018-02-20T11:05:12.118Z,5.76
2018-02-20T11:07:41.195Z,5.76
2018-02-20T11:10:09.417Z,5.71
2018-02-20T11:12:37.671Z,4.73
2018-02-20T11:15:06.698Z,4.77
2018-02-20T11:17:34.963Z,5.21
2018-02-20T11:20:03.243Z,5.04
2018-02-20T11:22:31.485Z,5.12
2018-02-20T11:25:00.608Z,5.80
2018-02-20T11:27:28.868Z,6.08
2018-02-20T11:29:57.114Z,6.29
2018-02-20T11:32:25.378Z,6.44
2018-02-20T11:34:53.630Z,6.09
2018-02-20T11:37:21.880Z,5.86
2018-02-20T11:39:50.138Z,5.24
2018-02-20T11:42:18.409Z,5.20
2018-02-20T11:44:47.519Z,4.88
2018-02-20T11:47:15.767Z,4.86
2018-02-20T11:49:44.783Z,4.83
2018-02-20T11:54:47.459Z,4.29
2018-02-20T11:57:16.483Z,4.89
2018-02-20T11:59:44.734Z,5.59
2018-02-20T12:02:13.747Z,6.24
2018-02-20T12:04:42.011Z,5.73
2018-02-20T12:07:11.031Z,5.85
2018-02-20T12:09:39.339Z,6.54
2018-02-20T12:12:07.582Z,6.31
2018-02-20T12:14:35.862Z,6.79
2018-02-20T12:17:04.139Z,5.61
2018-02-20T12:19:32.386Z,5.98
2018-02-20T12:22:00.658Z,6.28
2018-02-20T12:24:29.677Z,6.39
2018-02-20T12:26:57.968Z,6.60
2018-02-20T12:29:26.216Z,6.83
2018-02-20T12:31:54.506Z,6.88
2018-02-20T12:34:22.772Z,7.65
2018-02-20T12:36:51.027Z,7.30
2018-02-20T12:39:20.080Z,6.90
2018-02-20T12:41:48.328Z,6.92
2018-02-20T12:44:16.599Z,6.61
2018-02-20T12:46:44.857Z,6.71
2018-02-20T12:49:13.126Z,6.19
2018-02-20T12:51:42.147Z,5.75
2018-02-20T12:54:10.415Z,5.60
2018-02-20T12:56:38.674Z,6.29
2018-02-20T12:59:07.748Z,6.64
2018-02-20T13:01:35.965Z,7.05
2018-02-20T13:04:04.226Z,6.84
2018-02-20T13:06:32.492Z,7.20
2018-02-20T13:09:01.508Z,7.16
2018-02-20T13:11:29.755Z,7.82
2018-02-20T13:13:58.794Z,7.63
2018-02-20T13:16:27.047Z,7.89
2018-02-20T13:18:55.319Z,7.35
2018-02-20T13:21:23.595Z,7.70
2018-02-20T13:23:51.849Z,7.68
2018-02-20T13:26:20.867Z,7.84
2018-02-20T13:28:49.127Z,8.97
2018-02-20T13:31:18.147Z,8.99
2018-02-20T13:33:46.407Z,9.59
2018-02-20T13:36:14.683Z,10.18
2018-02-20T13:38:42.951Z,10.82
2018-02-20T13:41:12.033Z,11.39
2018-02-20T13:43:41.063Z,10.97
2018-02-20T13:46:09.328Z,10.39
2018-02-20T13:48:37.605Z,10.33
2018-02-20T13:51:05.858Z,10.09
2018-02-20T13:53:34.876Z,9.20
2018-02-20T13:56:03.155Z,9.10
2018-02-20T13:58:31.414Z,9.15
2018-02-20T14:00:59.683Z,10.34
2018-02-20T14:03:28.751Z,10.75
2018-02-20T14:05:57.012Z,11.44
2018-02-20T14:08:25.287Z,11.66
2018-02-20T14:10:53.551Z,11.07
2018-02-20T14:13:21.834Z,9.62
2018-02-20T14:15:50.098Z,9.30
2018-02-20T14:18:18.396Z,9.89
2018-02-20T14:20:46.647Z,10.24
2018-02-20T14:23:14.916Z,10.81
2018-02-20T14:25:43.198Z,10.56
2018-02-20T14:28:11.558Z,11.41
2018-02-20T14:30:39.829Z,10.27
2018-02-20T14:33:08.145Z,9.76
2018-02-20T14:35:36.351Z,9.87
2018-02-20T14:38:05.411Z,8.76
2018-02-20T14:40:33.663Z,10.39
2018-02-20T14:43:01.951Z,11.40
2018-02-20T14:45:30.239Z,11.95
2018-02-20T14:47:58.531Z,11.94
2018-02-20T14:50:26.817Z,11.51
2018-02-20T14:52:55.104Z,10.07
2018-02-20T14:55:24.130Z,10.22
2018-02-20T14:57:52.390Z,10.95
2018-02-20T15:00:20.659Z,11.07
2018-02-20T15:02:48.922Z,11.54
2018-02-20T15:05:17.959Z,12.36
2018-02-20T15:07:46.231Z,13.01
2018-02-20T15:10:14.483Z,13.12
2018-02-20T15:12:42.759Z,12.64
2018-02-20T15:15:11.011Z,13.27
2018-02-20T15:17:39.298Z,12.55
2018-02-20T15:20:08.371Z,12.52
2018-02-20T15:22:36.648Z,12.89
2018-02-20T15:25:04.947Z,12.97
2018-02-20T15:27:33.983Z,12.29
2018-02-20T15:30:02.262Z,10.94
2018-02-20T15:32:30.516Z,10.62
2018-02-20T15:34:58.775Z,10.20
2018-02-20T15:37:27.043Z,9.99
2018-02-20T15:39:56.091Z,9.60
2018-02-20T15:42:24.380Z,8.75
2018-02-20T15:44:52.623Z,8.50
2018-02-20T15:47:20.888Z,8.14
2018-02-20T15:49:49.178Z,7.99
2018-02-20T15:52:17.461Z,8.32
2018-02-20T15:54:45.738Z,7.88
2018-02-20T15:57:14.182Z,7.79
2018-02-20T15:59:42.466Z,6.86
2018-02-20T16:02:10.863Z,6.45
2018-02-20T16:04:39.124Z,6.31
2018-02-20T16:07:07.572Z,6.25
2018-02-20T16:09:35.823Z,5.93
2018-02-20T16:12:04.075Z,5.87
2018-02-20T16:14:32.348Z,5.58
2018-02-20T16:17:01.499Z,5.17
2018-02-20T16:19:30.568Z,4.91
2018-02-20T16:21:58.815Z,4.88
2018-02-20T16:24:27.094Z,4.70
2018-02-20T16:26:55.355Z,4.55
2018-02-20T16:29:23.626Z,4.47
2018-02-20T16:31:51.905Z,4.37
2018-02-20T16:34:20.163Z,4.15
2018-02-20T16:36:48.415Z,4.25
2018-02-20T16:39:16.745Z,4.05
2018-02-20T16:41:45.032Z,3.90
2018-02-20T16:44:13.382Z,3.80
2018-02-20T16:46:41.714Z,3.65
2018-02-20T16:49:10.947Z,3.62
2018-02-20T16:51:39.813Z,3.46
2018-02-20T16:54:08.581Z,3.51
2018-02-20T16:56:38.079Z,3.26
2018-02-20T16:59:06.399Z,3.30
2018-02-20T17:01:35.828Z,2.84
2018-02-20T17:04:04.514Z,2.98
2018-02-20T17:06:33.793Z,2.98
2018-02-20T17:09:02.552Z,2.84
2018-02-20T17:11:31.021Z,2.69
2018-02-20T17:14:00.147Z,2.79
2018-02-20T17:16:29.875Z,2.70
2018-02-20T17:18:58.674Z,2.82
2018-02-20T17:21:27.418Z,2.97
2018-02-20T17:23:56.026Z,3.21
2018-02-20T17:26:25.411Z,3.09
2018-02-20T17:28:55.172Z,3.11
2018-02-20T17:31:25.326Z,3.20
2018-02-20T17:33:55.242Z,3.19
2018-02-20T17:36:24.963Z,2.87
2018-02-20T17:38:54.814Z,3.18
2018-02-20T17:41:24.451Z,3.00
2018-02-20T17:43:54.377Z,3.00
2018-02-20T17:46:24.267Z,3.09
2018-02-20T17:48:54.352Z,3.10
2018-02-20T17:51:24.796Z,3.11
2018-02-20T17:53:54.492Z,3.18
2018-02-20T17:56:24.285Z,3.10
2018-02-20T17:58:54.187Z,3.08
2018-02-20T18:01:23.970Z,3.00
2018-02-20T18:03:54.012Z,3.10
2018-02-20T18:06:23.979Z,3.19
2018-02-20T18:08:54.771Z,3.14
2018-02-20T18:11:24.445Z,3.04
2018-02-20T18:13:54.770Z,3.08
2018-02-20T18:16:24.501Z,2.86
2018-02-20T18:18:54.463Z,2.74
2018-02-20T18:21:25.391Z,2.72
2018-02-20T18:23:55.652Z,2.70
2018-02-20T18:26:25.668Z,2.74
2018-02-20T18:28:55.838Z,2.71
2018-02-20T18:31:25.078Z,2.76
2018-02-20T18:33:55.340Z,2.69
2018-02-20T18:36:25.320Z,2.70
2018-02-20T18:38:54.662Z,2.53
2018-02-20T18:41:23.979Z,2.61
2018-02-20T18:43:53.362Z,2.39
2018-02-20T18:46:23.833Z,2.50
2018-02-20T18:48:54.054Z,2.45
2018-02-20T18:51:25.199Z,2.44
2018-02-20T18:53:55.353Z,2.42
2018-02-20T18:56:24.729Z,2.51
2018-02-20T18:58:54.023Z,2.30
2018-02-20T19:01:23.346Z,2.36
2018-02-20T19:03:52.818Z,2.36
2018-02-20T19:06:22.124Z,2.28
2018-02-20T19:08:51.598Z,2.30
2018-02-20T19:11:20.881Z,2.20
2018-02-20T19:13:50.174Z,1.74
2018-02-20T19:16:19.642Z,1.93
2018-02-20T19:18:48.886Z,1.92
2018-02-20T19:21:18.364Z,1.86
2018-02-20T19:23:47.653Z,2.14
2018-02-20T19:26:17.013Z,1.99
2018-02-20T19:28:46.305Z,2.05
2018-02-20T19:31:15.614Z,2.07
2018-02-20T19:33:45.146Z,2.16
2018-02-20T19:36:15.264Z,2.09
2018-02-20T19:38:45.761Z,2.29
2018-02-20T19:41:17.770Z,2.31
2018-02-20T19:43:48.146Z,2.42
2018-02-20T19:46:18.188Z,2.35
2018-02-20T19:48:47.622Z,2.27
2018-02-20T19:51:17.058Z,2.36
2018-02-20T19:53:46.424Z,2.26
2018-02-20T19:56:15.849Z,2.27
2018-02-20T19:58:45.183Z,2.23
2018-02-20T20:01:15.175Z,2.08
2018-02-20T20:03:44.534Z,2.28
2018-02-20T20:06:13.884Z,2.32
2018-02-20T20:08:43.674Z,2.40
2018-02-20T20:11:12.944Z,2.18
2018-02-20T20:13:43.172Z,2.44
2018-02-20T20:16:12.522Z,2.51
2018-02-20T20:18:41.946Z,2.34
2018-02-20T20:21:12.166Z,2.40
2018-02-20T20:23:42.361Z,2.25
2018-02-20T20:26:11.616Z,2.40
2018-02-20T20:28:41.097Z,2.33
2018-02-20T20:31:11.619Z,2.28
2018-02-20T20:33:40.949Z,2.27
2018-02-20T20:36:10.380Z,2.06
2018-02-20T20:38:39.666Z,2.16
2018-02-20T20:41:09.026Z,2.26
2018-02-20T20:43:39.292Z,2.42
2018-02-20T20:46:08.563Z,2.45
2018-02-20T20:48:37.946Z,2.31
2018-02-20T20:51:07.984Z,2.30
2018-02-20T20:53:38.138Z,2.48
2018-02-20T20:56:07.485Z,2.57
2018-02-20T20:58:38.610Z,2.62
2018-02-20T21:01:07.854Z,2.59
2018-02-20T21:03:37.110Z,2.61
2018-02-20T21:06:06.748Z,2.62
2018-02-20T21:08:36.779Z,2.57
2018-02-20T21:11:06.157Z,2.32
2018-02-20T21:13:36.255Z,2.32
2018-02-20T21:16:05.723Z,2.39
2018-02-20T21:18:35.057Z,2.30
2018-02-20T21:21:04.480Z,2.19
2018-02-20T21:23:34.544Z,2.28
2018-02-20T21:26:03.885Z,2.00
2018-02-20T21:28:33.193Z,2.07
2018-02-20T21:31:03.357Z,2.00
2018-02-20T21:33:32.675Z,1.92
2018-02-20T21:36:01.982Z,2.08
2018-02-20T21:38:31.335Z,2.20
2018-02-20T21:41:01.523Z,2.23
2018-02-20T21:43:30.933Z,2.25
2018-02-20T21:46:00.336Z,2.03
2018-02-20T21:48:29.737Z,2.18
2018-02-20T21:50:59.007Z,2.17
2018-02-20T21:53:28.474Z,2.03
2018-02-20T21:55:57.711Z,2.00
2018-02-20T21:58:27.104Z,2.09
2018-02-20T22:00:56.373Z,2.22
2018-02-20T22:03:25.704Z,2.25
2018-02-20T22:05:54.946Z,2.27
2018-02-20T22:08:24.181Z,2.19
2018-02-20T22:10:53.382Z,2.18
2018-02-20T22:13:22.615Z,2.26
2018-02-20T22:15:52.530Z,2.41
2018-02-20T22:18:20.958Z,2.47
2018-02-20T22:20:49.254Z,2.32
2018-02-20T22:23:17.543Z,2.40
2018-02-20T22:25:45.890Z,2.41
2018-02-20T22:28:14.210Z,2.31
2018-02-20T22:30:43.449Z,2.34
2018-02-20T22:33:11.707Z,2.30
2018-02-20T22:35:40.719Z,2.16
2018-02-20T22:38:08.992Z,2.26
2018-02-20T22:40:37.280Z,1.89
2018-02-20T22:43:05.555Z,1.61
2018-02-20T22:45:33.960Z,1.68
2018-02-20T22:48:02.220Z,1.53
2018-02-20T22:50:30.470Z,1.40
2018-02-20T22:52:58.735Z,1.49
2018-02-20T22:55:26.987Z,1.43
2018-02-20T22:57:55.258Z,1.51
2018-02-20T23:00:23.506Z,1.52
2018-02-20T23:02:51.788Z,1.43
2018-02-20T23:05:20.039Z,1.52
2018-02-20T23:07:48.307Z,1.61
2018-02-20T23:10:16.559Z,1.38
2018-02-20T23:12:45.580Z,1.41
2018-02-20T23:15:13.854Z,1.37
2018-02-20T23:17:42.103Z,1.31
2018-02-20T23:20:11.132Z,1.39
2018-02-20T23:43:21.261Z,1.40
2018-02-20T23:45:49.524Z,1.31
2018-02-20T23:48:17.789Z,1.43
2018-02-20T23:50:46.080Z,1.39
2018-02-20T23:53:14.604Z,1.52
2018-02-20T23:55:42.884Z,1.51
2018-02-20T23:58:11.155Z,1.61
